sensor_id;sensor_type;location;lat;lon;timestamp;pressure;altitude;pressure_sealevel;temperature;humidity
41140;BME280;26881;48.784;9.192;2023-03-12T00:03:09;98275.13;;;2.21;58.23
41140;BME280;26881;48.784;9.192;2023-03-12T00:08:31;98270.63;;;2.27;57.67
41140;BME280;26881;48.784;9.192;2023-03-12T00:13:55;98286.38;;;2.18;58.18
41140;BME280;26881;48.784;9.192;2023-03-12T00:19:17;98286.38;;;2.18;58.00
41140;BME280;26881;48.784;9.192;2023-03-12T00:24:39;98284.72;;;2.17;58.49
41140;BME280;26881;48.784;9.192;2023-03-12T00:30:01;98286.44;;;2.17;58.44
41140;BME280;26881;48.784;9.192;2023-03-12T00:35:23;98274.75;;;2.05;59.97
41140;BME280;26881;48.784;9.192;2023-03-12T00:40:46;98279.78;;;2.38;58.75
41140;BME280;26881;48.784;9.192;2023-03-12T00:46:08;98272.28;;;2.30;59.49
41140;BME280;26881;48.784;9.192;2023-03-12T00:51:29;98272.81;;;2.11;60.70
41140;BME280;26881;48.784;9.192;2023-03-12T00:56:51;98265.19;;;2.08;61.05
41140;BME280;26881;48.784;9.192;2023-03-12T01:02:13;98267.66;;;2.11;61.21
41140;BME280;26881;48.784;9.192;2023-03-12T01:07:35;98269.59;;;2.05;62.07
41140;BME280;26881;48.784;9.192;2023-03-12T01:12:57;98261.00;;;2.04;61.11
41140;BME280;26881;48.784;9.192;2023-03-12T01:18:18;98273.63;;;2.14;61.16
41140;BME280;26881;48.784;9.192;2023-03-12T01:23:40;98260.44;;;1.95;62.20
41140;BME280;26881;48.784;9.192;2023-03-12T01:29:02;98267.22;;;1.97;61.49
41140;BME280;26881;48.784;9.192;2023-03-12T01:34:24;98269.41;;;2.11;62.48
41140;BME280;26881;48.784;9.192;2023-03-12T01:39:46;98266.59;;;2.19;62.01
41140;BME280;26881;48.784;9.192;2023-03-12T01:51:10;98272.94;;;2.37;61.14
41140;BME280;26881;48.784;9.192;2023-03-12T01:56:34;98275.94;;;2.23;61.39
41140;BME280;26881;48.784;9.192;2023-03-12T02:01:57;98273.75;;;2.39;61.25
41140;BME280;26881;48.784;9.192;2023-03-12T02:07:20;98271.47;;;2.28;61.33
41140;BME280;26881;48.784;9.192;2023-03-12T02:12:42;98270.97;;;2.45;61.80
41140;BME280;26881;48.784;9.192;2023-03-12T02:18:05;98263.31;;;2.42;62.22
41140;BME280;26881;48.784;9.192;2023-03-12T02:29:12;98263.94;;;2.22;62.35
41140;BME280;26881;48.784;9.192;2023-03-12T02:34:35;98262.91;;;2.27;62.48
41140;BME280;26881;48.784;9.192;2023-03-12T02:40:04;98270.25;;;2.40;61.89
41140;BME280;26881;48.784;9.192;2023-03-12T02:45:29;98262.38;;;2.16;63.62
41140;BME280;26881;48.784;9.192;2023-03-12T02:50:51;98261.94;;;2.30;62.03
41140;BME280;26881;48.784;9.192;2023-03-12T02:56:13;98263.28;;;2.15;62.75
41140;BME280;26881;48.784;9.192;2023-03-12T03:01:35;98258.19;;;2.12;62.35
41140;BME280;26881;48.784;9.192;2023-03-12T03:06:57;98259.78;;;2.16;62.51
41140;BME280;26881;48.784;9.192;2023-03-12T03:12:19;98253.91;;;2.13;63.03
41140;BME280;26881;48.784;9.192;2023-03-12T03:17:41;98254.72;;;2.13;62.91
41140;BME280;26881;48.784;9.192;2023-03-12T03:23:02;98239.69;;;1.98;63.47
41140;BME280;26881;48.784;9.192;2023-03-12T03:28:26;98228.31;;;2.05;63.98
41140;BME280;26881;48.784;9.192;2023-03-12T03:33:48;98226.72;;;2.29;63.57
41140;BME280;26881;48.784;9.192;2023-03-12T03:39:10;98230.38;;;2.50;62.98
41140;BME280;26881;48.784;9.192;2023-03-12T03:44:33;98226.34;;;2.41;63.01
41140;BME280;26881;48.784;9.192;2023-03-12T03:49:55;98231.25;;;2.49;62.89
41140;BME280;26881;48.784;9.192;2023-03-12T03:55:17;98233.75;;;2.52;63.40
41140;BME280;26881;48.784;9.192;2023-03-12T04:00:39;98236.50;;;2.46;62.69
41140;BME280;26881;48.784;9.192;2023-03-12T04:06:03;98222.97;;;2.66;62.65
41140;BME280;26881;48.784;9.192;2023-03-12T04:11:26;98214.75;;;2.55;62.72
41140;BME280;26881;48.784;9.192;2023-03-12T04:16:48;98215.53;;;2.82;61.92
41140;BME280;26881;48.784;9.192;2023-03-12T04:22:10;98225.06;;;2.80;62.80
41140;BME280;26881;48.784;9.192;2023-03-12T04:27:32;98220.38;;;2.92;62.36
41140;BME280;26881;48.784;9.192;2023-03-12T04:32:54;98221.31;;;2.90;63.00
41140;BME280;26881;48.784;9.192;2023-03-12T04:38:17;98222.09;;;2.92;63.41
41140;BME280;26881;48.784;9.192;2023-03-12T04:43:39;98224.94;;;2.84;63.26
41140;BME280;26881;48.784;9.192;2023-03-12T04:49:00;98222.56;;;2.78;63.49
41140;BME280;26881;48.784;9.192;2023-03-12T04:54:23;98220.81;;;2.79;63.86
41140;BME280;26881;48.784;9.192;2023-03-12T04:59:46;98223.78;;;2.93;63.33
41140;BME280;26881;48.784;9.192;2023-03-12T05:05:10;98213.44;;;2.93;63.57
41140;BME280;26881;48.784;9.192;2023-03-12T05:10:32;98209.13;;;2.93;63.65
41140;BME280;26881;48.784;9.192;2023-03-12T05:15:53;98210.88;;;2.93;64.02
41140;BME280;26881;48.784;9.192;2023-03-12T05:21:18;98203.03;;;2.96;63.34
41140;BME280;26881;48.784;9.192;2023-03-12T05:26:40;98201.94;;;3.03;63.37
41140;BME280;26881;48.784;9.192;2023-03-12T05:32:02;98211.31;;;3.06;63.82
41140;BME280;26881;48.784;9.192;2023-03-12T05:37:24;98204.75;;;3.21;63.61
41140;BME280;26881;48.784;9.192;2023-03-12T05:42:45;98212.81;;;3.11;64.32
41140;BME280;26881;48.784;9.192;2023-03-12T05:48:07;98219.06;;;3.06;64.34
41140;BME280;26881;48.784;9.192;2023-03-12T05:53:29;98222.31;;;3.11;64.39
41140;BME280;26881;48.784;9.192;2023-03-12T05:58:51;98228.81;;;3.23;65.27
41140;BME280;26881;48.784;9.192;2023-03-12T06:04:13;98228.00;;;3.21;65.91
41140;BME280;26881;48.784;9.192;2023-03-12T06:09:34;98237.81;;;3.11;66.46
41140;BME280;26881;48.784;9.192;2023-03-12T06:14:56;98233.69;;;3.05;70.28
41140;BME280;26881;48.784;9.192;2023-03-12T06:20:18;98224.63;;;2.93;73.77
41140;BME280;26881;48.784;9.192;2023-03-12T06:25:43;98217.91;;;2.89;75.76
41140;BME280;26881;48.784;9.192;2023-03-12T06:31:06;98209.69;;;3.03;78.14
41140;BME280;26881;48.784;9.192;2023-03-12T06:36:28;98208.59;;;3.09;78.70
41140;BME280;26881;48.784;9.192;2023-03-12T06:41:50;98200.75;;;3.12;77.52
41140;BME280;26881;48.784;9.192;2023-03-12T06:47:12;98202.00;;;3.00;78.71
41140;BME280;26881;48.784;9.192;2023-03-12T06:52:34;98203.25;;;3.15;79.34
41140;BME280;26881;48.784;9.192;2023-03-12T06:57:56;98198.00;;;3.16;80.31
41140;BME280;26881;48.784;9.192;2023-03-12T07:03:18;98198.50;;;3.26;80.17
41140;BME280;26881;48.784;9.192;2023-03-12T07:08:40;98203.78;;;3.48;80.11
41140;BME280;26881;48.784;9.192;2023-03-12T07:14:02;98203.31;;;3.37;80.62
41140;BME280;26881;48.784;9.192;2023-03-12T07:19:24;98199.38;;;3.50;81.66
41140;BME280;26881;48.784;9.192;2023-03-12T07:24:46;98218.50;;;3.46;82.44
41140;BME280;26881;48.784;9.192;2023-03-12T07:30:08;98213.31;;;3.46;82.31
41140;BME280;26881;48.784;9.192;2023-03-12T07:35:30;98209.22;;;3.64;81.82
41140;BME280;26881;48.784;9.192;2023-03-12T07:40:55;98209.16;;;3.66;82.21
41140;BME280;26881;48.784;9.192;2023-03-12T07:46:17;98209.50;;;3.80;82.22
41140;BME280;26881;48.784;9.192;2023-03-12T07:51:39;98190.13;;;3.90;82.99
41140;BME280;26881;48.784;9.192;2023-03-12T07:57:01;98192.41;;;3.98;82.01
41140;BME280;26881;48.784;9.192;2023-03-12T08:02:23;98201.53;;;4.30;80.19
41140;BME280;26881;48.784;9.192;2023-03-12T08:07:45;98206.09;;;4.46;81.03
41140;BME280;26881;48.784;9.192;2023-03-12T08:13:07;98210.78;;;4.36;82.37
41140;BME280;26881;48.784;9.192;2023-03-12T08:18:29;98206.88;;;4.48;81.42
41140;BME280;26881;48.784;9.192;2023-03-12T08:23:51;98201.81;;;4.44;81.97
41140;BME280;26881;48.784;9.192;2023-03-12T08:29:13;98220.78;;;4.45;81.95
41140;BME280;26881;48.784;9.192;2023-03-12T08:34:35;98210.63;;;4.61;81.79
41140;BME280;26881;48.784;9.192;2023-03-12T08:39:57;98217.63;;;4.59;81.86
41140;BME280;26881;48.784;9.192;2023-03-12T08:45:19;98222.28;;;4.51;82.78
41140;BME280;26881;48.784;9.192;2023-03-12T08:50:41;98213.09;;;4.43;82.13
41140;BME280;26881;48.784;9.192;2023-03-12T08:56:03;98216.97;;;4.54;83.45
41140;BME280;26881;48.784;9.192;2023-03-12T09:01:25;98215.72;;;4.64;83.60
41140;BME280;26881;48.784;9.192;2023-03-12T09:06:47;98195.00;;;4.64;85.83
41140;BME280;26881;48.784;9.192;2023-03-12T09:12:09;98206.44;;;4.58;86.51
41140;BME280;26881;48.784;9.192;2023-03-12T09:17:31;98205.09;;;4.91;87.32
41140;BME280;26881;48.784;9.192;2023-03-12T09:22:53;98205.75;;;4.96;87.59
41140;BME280;26881;48.784;9.192;2023-03-12T09:28:15;98209.38;;;5.12;87.79
41140;BME280;26881;48.784;9.192;2023-03-12T09:33:38;98204.56;;;5.23;88.36
41140;BME280;26881;48.784;9.192;2023-03-12T09:39:00;98210.34;;;5.30;88.05
41140;BME280;26881;48.784;9.192;2023-03-12T09:44:42;98216.75;;;5.42;88.84
41140;BME280;26881;48.784;9.192;2023-03-12T09:50:18;98216.00;;;5.59;89.38
41140;BME280;26881;48.784;9.192;2023-03-12T09:55:42;98213.69;;;5.72;89.82
41140;BME280;26881;48.784;9.192;2023-03-12T10:02:12;98209.50;;;5.88;88.84
41140;BME280;26881;48.784;9.192;2023-03-12T10:07:07;98218.34;;;6.03;89.16
41140;BME280;26881;48.784;9.192;2023-03-12T10:12:46;98219.94;;;6.24;88.66
41140;BME280;26881;48.784;9.192;2023-03-12T10:18:20;98220.06;;;6.40;89.02
41140;BME280;26881;48.784;9.192;2023-03-12T10:29:32;98221.09;;;6.72;88.72
41140;BME280;26881;48.784;9.192;2023-03-12T10:35:02;98216.13;;;6.85;87.66
41140;BME280;26881;48.784;9.192;2023-03-12T10:40:28;98225.78;;;7.01;86.67
41140;BME280;26881;48.784;9.192;2023-03-12T10:46:09;98239.44;;;7.22;87.64
41140;BME280;26881;48.784;9.192;2023-03-12T10:57:41;98252.47;;;7.55;88.62
41140;BME280;26881;48.784;9.192;2023-03-12T11:03:18;98251.97;;;7.81;92.58
41140;BME280;26881;48.784;9.192;2023-03-12T11:08:41;98253.75;;;7.97;92.45
41140;BME280;26881;48.784;9.192;2023-03-12T11:19:34;98255.97;;;8.20;93.98
41140;BME280;26881;48.784;9.192;2023-03-12T11:25:06;98256.72;;;8.38;93.08
41140;BME280;26881;48.784;9.192;2023-03-12T11:30:55;98251.59;;;8.53;93.17
41140;BME280;26881;48.784;9.192;2023-03-12T11:36:32;98250.69;;;8.70;92.56
41140;BME280;26881;48.784;9.192;2023-03-12T11:47:58;98235.72;;;8.88;92.19
41140;BME280;26881;48.784;9.192;2023-03-12T11:59:34;98240.72;;;9.06;91.68
41140;BME280;26881;48.784;9.192;2023-03-12T12:05:20;98241.88;;;9.17;91.39
41140;BME280;26881;48.784;9.192;2023-03-12T12:11:06;98236.13;;;9.26;90.41
41140;BME280;26881;48.784;9.192;2023-03-12T12:16:36;98220.00;;;9.34;90.43
41140;BME280;26881;48.784;9.192;2023-03-12T12:22:35;98221.88;;;9.46;90.81
41140;BME280;26881;48.784;9.192;2023-03-12T12:39:14;98207.69;;;9.79;86.41
41140;BME280;26881;48.784;9.192;2023-03-12T12:44:51;98195.56;;;9.78;85.72
41140;BME280;26881;48.784;9.192;2023-03-12T12:50:19;98187.47;;;9.82;85.40
41140;BME280;26881;48.784;9.192;2023-03-12T12:55:51;98194.91;;;9.88;84.19
41140;BME280;26881;48.784;9.192;2023-03-12T13:01:16;98189.50;;;9.91;83.48
41140;BME280;26881;48.784;9.192;2023-03-12T13:06:56;98195.56;;;9.92;83.07
41140;BME280;26881;48.784;9.192;2023-03-12T13:12:35;98194.63;;;9.93;82.55
41140;BME280;26881;48.784;9.192;2023-03-12T13:18:22;98207.59;;;9.95;81.60
41140;BME280;26881;48.784;9.192;2023-03-12T13:23:54;98207.41;;;9.98;83.03
41140;BME280;26881;48.784;9.192;2023-03-12T13:34:55;98216.81;;;10.00;82.68
41140;BME280;26881;48.784;9.192;2023-03-12T13:51:27;98201.38;;;10.24;79.22
41140;BME280;26881;48.784;9.192;2023-03-12T13:57:02;98192.91;;;10.48;78.35
41140;BME280;26881;48.784;9.192;2023-03-12T14:02:32;98199.34;;;10.57;77.25
41140;BME280;26881;48.784;9.192;2023-03-12T14:08:20;98175.50;;;10.61;75.75
41140;BME280;26881;48.784;9.192;2023-03-12T14:14:19;98197.25;;;10.62;74.86
41140;BME280;26881;48.784;9.192;2023-03-12T14:19:50;98208.84;;;10.58;74.82
41140;BME280;26881;48.784;9.192;2023-03-12T14:25:16;98201.22;;;10.54;75.68
41140;BME280;26881;48.784;9.192;2023-03-12T14:36:20;98219.16;;;10.46;76.69
41140;BME280;26881;48.784;9.192;2023-03-12T14:41:44;98216.44;;;10.48;76.95
41140;BME280;26881;48.784;9.192;2023-03-12T14:47:10;98190.00;;;10.52;76.66
41140;BME280;26881;48.784;9.192;2023-03-12T14:52:37;98193.94;;;10.72;75.78
41140;BME280;26881;48.784;9.192;2023-03-12T14:58:15;98194.69;;;10.87;73.85
41140;BME280;26881;48.784;9.192;2023-03-12T15:03:42;98202.25;;;10.92;70.23
41140;BME280;26881;48.784;9.192;2023-03-12T15:09:06;98207.78;;;11.00;69.11
41140;BME280;26881;48.784;9.192;2023-03-12T15:14:32;98212.63;;;11.06;67.64
41140;BME280;26881;48.784;9.192;2023-03-12T15:19:55;98217.56;;;11.11;68.43
41140;BME280;26881;48.784;9.192;2023-03-12T15:25:23;98213.28;;;11.10;68.95
41140;BME280;26881;48.784;9.192;2023-03-12T15:30:45;98211.06;;;11.04;69.23
41140;BME280;26881;48.784;9.192;2023-03-12T15:41:43;98209.34;;;10.90;69.10
41140;BME280;26881;48.784;9.192;2023-03-12T15:47:12;98203.50;;;10.86;68.43
41140;BME280;26881;48.784;9.192;2023-03-12T15:52:35;98204.44;;;10.85;68.57
41140;BME280;26881;48.784;9.192;2023-03-12T15:57:58;98209.75;;;10.84;68.20
41140;BME280;26881;48.784;9.192;2023-03-12T16:03:20;98211.66;;;10.82;68.61
41140;BME280;26881;48.784;9.192;2023-03-12T16:08:45;98206.31;;;10.83;68.11
41140;BME280;26881;48.784;9.192;2023-03-12T16:14:23;98197.72;;;10.81;67.82
41140;BME280;26881;48.784;9.192;2023-03-12T16:19:46;98193.44;;;10.80;67.81
41140;BME280;26881;48.784;9.192;2023-03-12T16:25:08;98202.19;;;10.79;67.56
41140;BME280;26881;48.784;9.192;2023-03-12T16:30:34;98199.72;;;10.78;66.81
41140;BME280;26881;48.784;9.192;2023-03-12T16:35:56;98194.16;;;10.82;65.44
41140;BME280;26881;48.784;9.192;2023-03-12T16:41:18;98200.63;;;10.76;66.93
41140;BME280;26881;48.784;9.192;2023-03-12T16:46:40;98214.56;;;10.77;66.88
41140;BME280;26881;48.784;9.192;2023-03-12T16:52:14;98209.53;;;10.74;66.12
41140;BME280;26881;48.784;9.192;2023-03-12T16:57:39;98203.66;;;10.70;67.06
41140;BME280;26881;48.784;9.192;2023-03-12T17:03:04;98205.84;;;10.64;67.58
41140;BME280;26881;48.784;9.192;2023-03-12T17:08:26;98197.78;;;10.67;66.43
41140;BME280;26881;48.784;9.192;2023-03-12T17:13:54;98202.56;;;10.60;66.39
41140;BME280;26881;48.784;9.192;2023-03-12T17:19:18;98202.13;;;10.53;66.62
41140;BME280;26881;48.784;9.192;2023-03-12T17:24:40;98204.84;;;10.52;66.70
41140;BME280;26881;48.784;9.192;2023-03-12T17:30:02;98211.72;;;10.40;67.68
41140;BME280;26881;48.784;9.192;2023-03-12T17:35:23;98220.59;;;10.38;67.74
41140;BME280;26881;48.784;9.192;2023-03-12T17:40:45;98224.03;;;10.38;67.16
41140;BME280;26881;48.784;9.192;2023-03-12T17:46:08;98226.41;;;10.28;67.56
41140;BME280;26881;48.784;9.192;2023-03-12T17:51:30;98217.03;;;10.24;67.68
41140;BME280;26881;48.784;9.192;2023-03-12T17:56:52;98245.06;;;10.22;67.52
41140;BME280;26881;48.784;9.192;2023-03-12T18:02:14;98239.91;;;10.21;67.96
41140;BME280;26881;48.784;9.192;2023-03-12T18:07:36;98235.53;;;10.21;67.86
41140;BME280;26881;48.784;9.192;2023-03-12T18:12:58;98239.28;;;10.17;68.08
41140;BME280;26881;48.784;9.192;2023-03-12T18:18:21;98240.06;;;10.05;68.76
41140;BME280;26881;48.784;9.192;2023-03-12T18:23:43;98238.28;;;10.05;68.44
41140;BME280;26881;48.784;9.192;2023-03-12T18:29:06;98246.19;;;10.04;68.60
41140;BME280;26881;48.784;9.192;2023-03-12T18:34:28;98255.53;;;10.08;68.44
41140;BME280;26881;48.784;9.192;2023-03-12T18:39:50;98266.47;;;10.00;68.71
41140;BME280;26881;48.784;9.192;2023-03-12T18:45:12;98267.38;;;9.99;68.53
41140;BME280;26881;48.784;9.192;2023-03-12T18:50:33;98276.91;;;10.00;68.22
41140;BME280;26881;48.784;9.192;2023-03-12T18:55:56;98269.81;;;10.02;68.68
41140;BME280;26881;48.784;9.192;2023-03-12T19:01:19;98266.63;;;9.97;68.59
41140;BME280;26881;48.784;9.192;2023-03-12T19:06:41;98257.13;;;9.96;68.75
41140;BME280;26881;48.784;9.192;2023-03-12T19:12:11;98258.78;;;9.97;68.68
41140;BME280;26881;48.784;9.192;2023-03-12T19:17:33;98257.91;;;9.84;69.04
41140;BME280;26881;48.784;9.192;2023-03-12T19:22:55;98268.63;;;9.79;69.45
41140;BME280;26881;48.784;9.192;2023-03-12T19:28:17;98279.06;;;9.79;69.04
41140;BME280;26881;48.784;9.192;2023-03-12T19:33:40;98279.06;;;9.79;68.95
41140;BME280;26881;48.784;9.192;2023-03-12T19:39:02;98269.16;;;9.70;69.26
41140;BME280;26881;48.784;9.192;2023-03-12T19:44:32;98270.47;;;9.63;69.62
41140;BME280;26881;48.784;9.192;2023-03-12T19:49:56;98285.66;;;9.56;69.98
41140;BME280;26881;48.784;9.192;2023-03-12T19:55:18;98293.78;;;9.52;70.59
41140;BME280;26881;48.784;9.192;2023-03-12T20:00:41;98287.03;;;9.47;70.71
41140;BME280;26881;48.784;9.192;2023-03-12T20:06:06;98283.41;;;9.50;70.87
41140;BME280;26881;48.784;9.192;2023-03-12T20:11:28;98286.47;;;9.42;71.19
41140;BME280;26881;48.784;9.192;2023-03-12T20:16:50;98273.59;;;9.39;71.55
41140;BME280;26881;48.784;9.192;2023-03-12T20:22:13;98282.38;;;9.38;71.76
41140;BME280;26881;48.784;9.192;2023-03-12T20:27:35;98289.25;;;9.39;71.56
41140;BME280;26881;48.784;9.192;2023-03-12T20:32:57;98287.84;;;9.34;71.65
41140;BME280;26881;48.784;9.192;2023-03-12T20:38:19;98272.81;;;9.23;72.24
41140;BME280;26881;48.784;9.192;2023-03-12T20:43:41;98276.78;;;9.30;72.04
41140;BME280;26881;48.784;9.192;2023-03-12T20:49:03;98280.38;;;9.27;71.69
41140;BME280;26881;48.784;9.192;2023-03-12T20:54:25;98280.69;;;9.37;70.88
41140;BME280;26881;48.784;9.192;2023-03-12T20:59:48;98289.97;;;9.27;71.42
41140;BME280;26881;48.784;9.192;2023-03-12T21:05:09;98290.72;;;9.29;71.55
41140;BME280;26881;48.784;9.192;2023-03-12T21:10:35;98287.22;;;9.30;71.55
41140;BME280;26881;48.784;9.192;2023-03-12T21:15:57;98281.94;;;9.16;72.26
41140;BME280;26881;48.784;9.192;2023-03-12T21:21:19;98281.47;;;9.09;72.84
41140;BME280;26881;48.784;9.192;2023-03-12T21:26:41;98286.38;;;9.14;72.64
41140;BME280;26881;48.784;9.192;2023-03-12T21:32:03;98274.38;;;9.11;72.95
41140;BME280;26881;48.784;9.192;2023-03-12T21:37:25;98264.78;;;9.12;73.02
41140;BME280;26881;48.784;9.192;2023-03-12T21:42:47;98266.28;;;9.16;72.34
41140;BME280;26881;48.784;9.192;2023-03-12T21:48:09;98263.78;;;9.14;72.82
41140;BME280;26881;48.784;9.192;2023-03-12T21:53:30;98267.28;;;9.13;72.63
41140;BME280;26881;48.784;9.192;2023-03-12T21:58:56;98257.97;;;9.09;72.85
41140;BME280;26881;48.784;9.192;2023-03-12T22:04:19;98255.53;;;9.06;72.94
41140;BME280;26881;48.784;9.192;2023-03-12T22:09:41;98250.84;;;8.97;73.33
41140;BME280;26881;48.784;9.192;2023-03-12T22:15:04;98250.59;;;9.01;73.10
41140;BME280;26881;48.784;9.192;2023-03-12T22:20:26;98234.03;;;9.02;73.31
41140;BME280;26881;48.784;9.192;2023-03-12T22:25:49;98227.22;;;9.00;73.54
41140;BME280;26881;48.784;9.192;2023-03-12T22:31:10;98220.50;;;8.96;73.17
41140;BME280;26881;48.784;9.192;2023-03-12T22:36:32;98208.34;;;8.95;73.70
41140;BME280;26881;48.784;9.192;2023-03-12T22:41:54;98196.34;;;8.92;74.01
41140;BME280;26881;48.784;9.192;2023-03-12T22:47:16;98185.53;;;8.84;74.65
41140;BME280;26881;48.784;9.192;2023-03-12T22:52:38;98180.13;;;8.87;74.48
41140;BME280;26881;48.784;9.192;2023-03-12T22:58:00;98177.25;;;8.92;74.26
41140;BME280;26881;48.784;9.192;2023-03-12T23:03:21;98156.31;;;8.93;73.64
41140;BME280;26881;48.784;9.192;2023-03-12T23:08:43;98155.16;;;8.83;73.98
41140;BME280;26881;48.784;9.192;2023-03-12T23:14:08;98148.28;;;8.82;74.38
41140;BME280;26881;48.784;9.192;2023-03-12T23:19:33;98160.03;;;8.89;74.46
41140;BME280;26881;48.784;9.192;2023-03-12T23:24:55;98161.66;;;8.76;75.56
41140;BME280;26881;48.784;9.192;2023-03-12T23:30:16;98155.50;;;8.62;75.91
41140;BME280;26881;48.784;9.192;2023-03-12T23:35:38;98160.06;;;8.43;76.37
41140;BME280;26881;48.784;9.192;2023-03-12T23:41:05;98151.72;;;8.36;76.72
41140;BME280;26881;48.784;9.192;2023-03-12T23:46:28;98155.53;;;8.47;76.77
41140;BME280;26881;48.784;9.192;2023-03-12T23:51:50;98150.25;;;8.32;77.17
41140;BME280;26881;48.784;9.192;2023-03-12T23:57:11;98148.53;;;8.31;78.04
